Time;durP1;ratioP1;P1;durP2;ratioP2;P2;SDS_P1;SDS_P2;PMS_P1;PMS_P2;Temp;Humidity;BMP_temperature;BMP_pressure;BME280_temperature;BME280_humidity;BME280_pressure;Samples;Min_cycle;Max_cycle;Signal;HPM_P1;HPM_P2
2022/08/23 00:02:00;;;;;;;4.50;4.20;;;19.20;99.90;;;;;;5072375;28;20654;-73
2022/08/23 00:04:31;;;;;;;4.80;4.40;;;19.30;99.90;;;;;;5072583;28;20723;-73
2022/08/23 00:07:00;;;;;;;6.47;4.20;;;19.10;99.90;;;;;;5073035;28;20578;-73
2022/08/23 00:09:28;;;;;;;5.73;4.20;;;18.90;99.90;;;;;;5073267;28;20659;-73
2022/08/23 00:12:01;;;;;;;5.53;4.63;;;18.90;99.90;;;;;;5073154;28;20625;-73
2022/08/23 00:14:31;;;;;;;8.90;4.63;;;19.00;99.90;;;;;;5073271;28;20589;-73
2022/08/23 00:16:58;;;;;;;5.13;3.90;;;19.00;99.90;;;;;;5073236;28;20586;-73
2022/08/23 00:19:24;;;;;;;4.07;3.77;;;19.10;99.90;;;;;;5072954;28;20625;-73
2022/08/23 00:21:53;;;;;;;10.27;4.10;;;19.10;99.90;;;;;;5072621;28;21055;-73
2022/08/23 00:24:21;;;;;;;6.00;3.87;;;19.00;99.90;;;;;;5072792;28;20635;-73
2022/08/23 00:26:53;;;;;;;4.87;4.33;;;18.90;99.90;;;;;;5072304;28;20614;-73
2022/08/23 00:29:20;;;;;;;7.20;4.47;;;18.70;99.90;;;;;;5072894;28;20581;-73
2022/08/23 00:31:47;;;;;;;5.27;4.77;;;18.20;99.90;;;;;;5072999;28;20582;-72
2022/08/23 00:34:13;;;;;;;10.70;4.93;;;18.00;99.90;;;;;;5073010;28;20570;-72
2022/08/23 00:36:40;;;;;;;5.90;5.17;;;17.90;99.90;;;;;;5072941;28;20574;-73
2022/08/23 00:39:07;;;;;;;7.60;4.17;;;17.90;99.90;;;;;;5072584;28;20610;-73
2022/08/23 00:41:34;;;;;;;5.73;4.80;;;17.80;99.90;;;;;;5072800;28;20638;-72
2022/08/23 00:50:16;;;;;;;6.87;5.20;;;17.50;99.90;;;;;;5049792;28;20606;-72
2022/08/23 00:52:50;;;;;;;5.60;4.70;;;17.70;99.90;;;;;;5072694;28;20581;-72
2022/08/23 00:55:18;;;;;;;5.10;4.70;;;17.90;99.90;;;;;;5072576;28;20643;-73
2022/08/23 00:57:45;;;;;;;6.03;4.90;;;18.10;99.90;;;;;;5072550;28;20755;-72
2022/08/23 01:00:15;;;;;;;6.60;4.60;;;18.20;99.90;;;;;;5072990;28;20586;-71
2022/08/23 01:02:44;;;;;;;5.03;4.30;;;18.40;99.90;;;;;;5072828;28;20720;-71
2022/08/23 01:05:12;;;;;;;5.27;4.50;;;18.50;99.90;;;;;;5072254;28;21192;-71
2022/08/23 01:07:49;;;;;;;6.17;4.57;;;18.50;99.90;;;;;;5074904;28;21168;-71
2022/08/23 01:10:28;;;;;;;5.77;4.30;;;18.60;99.90;;;;;;5075607;28;20609;-71
2022/08/23 01:13:19;;;;;;;8.40;4.70;;;18.70;99.90;;;;;;5074411;28;21011;-71
2022/08/23 01:15:54;;;;;;;5.40;4.90;;;18.80;99.90;;;;;;5075654;28;20574;-71
2022/08/23 01:18:25;;;;;;;6.97;5.13;;;18.80;99.90;;;;;;5076119;28;20574;-71
2022/08/23 01:21:12;;;;;;;5.40;5.00;;;18.60;99.90;;;;;;5075752;28;20638;-71
2022/08/23 01:23:55;;;;;;;6.80;3.90;;;18.10;99.90;;;;;;5075532;28;20634;-71
2022/08/23 01:26:24;;;;;;;6.80;4.60;;;17.80;99.90;;;;;;5076052;28;20578;-71
2022/08/23 01:28:54;;;;;;;6.17;4.67;;;17.60;99.90;;;;;;5075575;28;20625;-71
2022/08/23 01:31:22;;;;;;;8.17;4.60;;;17.60;99.90;;;;;;5075804;28;20931;-71
2022/08/23 01:34:09;;;;;;;6.53;5.00;;;17.50;99.90;;;;;;5075586;28;20684;-71
2022/08/23 01:36:36;;;;;;;5.70;4.77;;;17.40;99.90;;;;;;5075914;28;20650;-70
2022/08/23 01:39:04;;;;;;;11.37;4.80;;;17.60;99.90;;;;;;5075409;28;20639;-71
2022/08/23 01:41:30;;;;;;;5.27;4.87;;;17.50;99.90;;;;;;5075895;28;20638;-71
2022/08/23 01:43:57;;;;;;;7.07;5.87;;;17.60;99.90;;;;;;5075801;28;20549;-71
2022/08/23 01:46:25;;;;;;;7.80;5.30;;;17.40;99.90;;;;;;5075696;28;20635;-71
2022/08/23 01:48:54;;;;;;;5.30;4.80;;;17.50;99.90;;;;;;5075661;28;20622;-71
2022/08/23 01:51:21;;;;;;;6.30;5.70;;;17.60;99.90;;;;;;5074933;28;20626;-71
2022/08/23 01:53:48;;;;;;;10.43;6.00;;;17.40;99.90;;;;;;5075181;28;20581;-71
2022/08/23 01:56:18;;;;;;;6.33;5.77;;;17.10;99.90;;;;;;5074148;28;20577;-71
2022/08/23 01:58:45;;;;;;;5.63;5.10;;;17.00;99.90;;;;;;5075008;28;21125;-71
2022/08/23 02:01:12;;;;;;;8.00;6.00;;;17.20;99.90;;;;;;5075142;28;20644;-71
2022/08/23 02:03:38;;;;;;;10.10;5.73;;;17.30;99.90;;;;;;5074635;28;21121;-71
2022/08/23 02:06:05;;;;;;;5.73;5.10;;;17.40;99.90;;;;;;5075023;28;20579;-71
2022/08/23 02:11:21;;;;;;;6.77;4.57;;;17.60;99.90;;;;;;5075465;28;20929;-71
2022/08/23 02:13:51;;;;;;;6.30;4.63;;;17.70;99.90;;;;;;5074529;28;20606;-71
2022/08/23 02:16:23;;;;;;;5.50;4.90;;;17.70;99.90;;;;;;5075062;28;20571;-71
2022/08/23 02:18:50;;;;;;;6.37;4.83;;;17.70;99.90;;;;;;5073715;28;20571;-71
2022/08/23 02:21:17;;;;;;;6.93;5.20;;;17.90;99.90;;;;;;5074657;28;20579;-71
2022/08/23 02:23:43;;;;;;;5.90;4.87;;;17.90;99.90;;;;;;5074804;28;20698;-71
2022/08/23 02:26:10;;;;;;;6.30;5.30;;;17.80;99.90;;;;;;5074584;28;20579;-71
2022/08/23 02:28:36;;;;;;;5.57;5.07;;;17.50;99.90;;;;;;5074576;28;21112;-71
2022/08/23 02:31:03;;;;;;;7.47;5.60;;;17.30;99.90;;;;;;5075012;28;20553;-71
2022/08/23 02:33:29;;;;;;;5.93;4.67;;;17.20;99.90;;;;;;5074502;28;21150;-70
2022/08/23 02:35:56;;;;;;;6.20;5.17;;;17.00;99.90;;;;;;5074830;28;20659;-71
2022/08/23 02:38:22;;;;;;;6.40;5.03;;;17.00;99.90;;;;;;5074519;28;20622;-71
2022/08/23 02:40:49;;;;;;;12.20;5.37;;;16.90;99.90;;;;;;5073115;28;21176;-71
2022/08/23 02:43:15;;;;;;;5.43;4.10;;;16.80;99.90;;;;;;5074381;28;20699;-71
2022/08/23 02:45:42;;;;;;;5.10;4.70;;;16.80;99.90;;;;;;5073963;28;20610;-71
2022/08/23 02:48:08;;;;;;;5.93;5.43;;;16.70;99.90;;;;;;5074390;28;20574;-71
2022/08/23 02:50:35;;;;;;;5.10;4.70;;;16.60;99.90;;;;;;5073802;28;20579;-71
2022/08/23 02:53:02;;;;;;;7.03;5.30;;;16.40;99.90;;;;;;5074809;28;20582;-71
2022/08/23 02:55:28;;;;;;;7.23;5.20;;;16.30;99.90;;;;;;5074575;28;20582;-71
2022/08/23 02:57:55;;;;;;;5.97;5.20;;;16.40;99.90;;;;;;5074255;28;21137;-71
2022/08/23 03:00:21;;;;;;;5.57;5.17;;;16.50;99.90;;;;;;5072989;28;20602;-71
2022/08/23 03:02:48;;;;;;;10.33;5.43;;;16.60;99.90;;;;;;5073373;28;20658;-71
2022/08/23 03:05:15;;;;;;;7.00;5.50;;;16.60;99.90;;;;;;5073248;28;20657;-71
2022/08/23 03:07:43;;;;;;;7.97;5.23;;;16.50;99.90;;;;;;5073001;28;20557;-71
2022/08/23 03:10:12;;;;;;;4.83;4.40;;;16.60;99.90;;;;;;5073975;28;20687;-71
2022/08/23 03:12:42;;;;;;;6.20;5.50;;;16.70;99.90;;;;;;5074236;28;20648;-70
2022/08/23 03:15:09;;;;;;;5.20;4.80;;;16.60;99.90;;;;;;5073974;28;20668;-71
2022/08/23 03:17:35;;;;;;;5.77;5.27;;;16.70;99.90;;;;;;5073486;28;20946;-71
2022/08/23 03:20:03;;;;;;;6.47;5.87;;;16.70;99.90;;;;;;5072128;28;20630;-71
2022/08/23 03:22:29;;;;;;;10.13;6.10;;;16.60;99.90;;;;;;5073286;28;21077;-71
2022/08/23 03:24:56;;;;;;;6.70;5.30;;;16.40;99.90;;;;;;5073670;28;20692;-71
2022/08/23 03:27:22;;;;;;;6.33;5.70;;;16.30;99.90;;;;;;5072109;28;20611;-71
2022/08/23 03:29:49;;;;;;;5.50;5.00;;;16.20;99.90;;;;;;5073239;28;20636;-71
2022/08/23 03:32:15;;;;;;;5.67;5.10;;;16.40;99.90;;;;;;5072994;28;21060;-71
2022/08/23 03:34:42;;;;;;;6.07;5.03;;;16.40;99.90;;;;;;5073746;28;20574;-71
2022/08/23 03:37:09;;;;;;;10.73;6.00;;;16.30;99.90;;;;;;5073014;28;20660;-71
2022/08/23 03:39:36;;;;;;;6.70;5.40;;;16.10;99.90;;;;;;5073180;28;20623;-70
2022/08/23 03:42:02;;;;;;;7.03;5.23;;;15.90;99.90;;;;;;5073237;28;20676;-71
2022/08/23 03:44:29;;;;;;;8.70;6.10;;;15.80;99.90;;;;;;5073630;28;20571;-70
2022/08/23 03:46:55;;;;;;;6.53;5.90;;;15.70;99.90;;;;;;5073703;28;20590;-70
2022/08/23 03:49:22;;;;;;;6.83;5.30;;;15.90;99.90;;;;;;5073447;28;20644;-71
2022/08/23 03:51:48;;;;;;;7.17;5.30;;;16.00;99.90;;;;;;5073514;28;20595;-70
2022/08/23 03:54:15;;;;;;;5.37;4.87;;;16.10;99.90;;;;;;5073063;28;20606;-71
2022/08/23 03:56:54;;;;;;;6.70;5.53;;;16.20;99.90;;;;;;5072874;28;20626;-71
2022/08/23 03:59:21;;;;;;;5.90;5.40;;;16.30;99.90;;;;;;5073063;28;20581;-70
2022/08/23 04:01:48;;;;;;;10.73;5.47;;;16.40;99.90;;;;;;5072980;28;21150;-70
2022/08/23 04:04:14;;;;;;;8.27;6.17;;;16.50;99.90;;;;;;5072719;28;21108;-71
2022/08/23 04:06:41;;;;;;;5.77;5.20;;;16.70;99.90;;;;;;5073181;28;20597;-71
2022/08/23 04:09:07;;;;;;;5.47;5.07;;;16.60;99.90;;;;;;5072925;28;20581;-71
2022/08/23 04:11:34;;;;;;;6.13;5.60;;;16.50;99.90;;;;;;5072527;28;20626;-71
2022/08/23 04:14:00;;;;;;;5.77;5.27;;;16.50;99.90;;;;;;5072856;28;20592;-71
2022/08/23 04:16:29;;;;;;;7.23;6.33;;;16.40;99.90;;;;;;5072580;28;20579;-71
2022/08/23 04:18:55;;;;;;;5.60;5.20;;;16.20;99.90;;;;;;5072404;28;20746;-71
2022/08/23 04:21:22;;;;;;;7.93;5.40;;;16.20;99.90;;;;;;5071554;28;20652;-70
2022/08/23 04:23:49;;;;;;;11.90;6.37;;;16.20;99.90;;;;;;5073239;28;20691;-70
2022/08/23 04:26:16;;;;;;;5.20;4.80;;;16.20;99.90;;;;;;5073224;28;20599;-70
2022/08/23 04:28:42;;;;;;;14.70;7.10;;;16.10;99.90;;;;;;5073527;28;20687;-70
2022/08/23 04:31:09;;;;;;;6.37;5.60;;;15.90;99.90;;;;;;5073097;28;20984;-70
2022/08/23 04:33:35;;;;;;;5.70;5.10;;;15.90;99.90;;;;;;5072831;28;20621;-71
2022/08/23 04:36:03;;;;;;;6.93;6.20;;;16.00;99.90;;;;;;5072935;28;20652;-70
2022/08/23 04:38:30;;;;;;;5.67;5.17;;;15.90;99.90;;;;;;5073060;28;20584;-71
2022/08/23 04:43:42;;;;;;;10.57;6.30;;;15.60;99.90;;;;;;5077492;28;20608;-70
2022/08/23 04:46:09;;;;;;;6.60;6.00;;;15.50;99.90;;;;;;5077708;28;20632;-70
2022/08/23 04:48:36;;;;;;;7.83;5.53;;;15.50;99.90;;;;;;5077663;28;20570;-70
2022/08/23 04:51:03;;;;;;;6.10;5.60;;;15.50;99.90;;;;;;5077802;28;20594;-70
2022/08/23 04:53:31;;;;;;;6.93;5.33;;;15.50;99.90;;;;;;5076632;28;20588;-70
2022/08/23 04:55:58;;;;;;;6.73;6.13;;;15.40;99.90;;;;;;5076183;28;20625;-71
2022/08/23 04:58:24;;;;;;;6.03;5.53;;;15.40;99.90;;;;;;5075430;28;20553;-71
2022/08/23 05:00:51;;;;;;;6.50;5.90;;;15.40;99.90;;;;;;5076684;28;20610;-71
2022/08/23 05:03:17;;;;;;;11.10;5.43;;;15.60;99.90;;;;;;5076748;28;20629;-71
2022/08/23 05:05:44;;;;;;;7.10;5.90;;;15.60;99.90;;;;;;5076861;28;20642;-70
2022/08/23 05:08:11;;;;;;;10.60;6.00;;;15.70;99.90;;;;;;5077120;28;20567;-71
2022/08/23 05:10:37;;;;;;;6.93;6.03;;;15.70;99.90;;;;;;5076665;28;20969;-71
2022/08/23 05:13:04;;;;;;;6.33;5.73;;;15.80;99.90;;;;;;5076321;28;20584;-71
2022/08/23 05:15:30;;;;;;;12.77;6.03;;;15.80;99.90;;;;;;5076234;28;21136;-71
2022/08/23 05:17:57;;;;;;;11.10;6.60;;;15.80;99.90;;;;;;5074614;28;20607;-71
2022/08/23 05:20:23;;;;;;;6.30;5.70;;;15.90;99.90;;;;;;5076069;28;20583;-71
2022/08/23 05:22:50;;;;;;;5.97;5.57;;;15.90;99.90;;;;;;5075594;28;20672;-71
2022/08/23 05:25:16;;;;;;;7.47;6.73;;;15.90;99.90;;;;;;5076087;28;20691;-71
2022/08/23 05:27:43;;;;;;;11.97;6.20;;;16.00;99.90;;;;;;5076204;28;20680;-71
2022/08/23 05:30:10;;;;;;;8.20;5.90;;;16.10;99.90;;;;;;5074306;28;20610;-71
2022/08/23 05:32:37;;;;;;;8.20;5.33;;;16.20;99.90;;;;;;5076052;28;20549;-71
2022/08/23 05:35:05;;;;;;;6.43;5.80;;;16.30;99.90;;;;;;5075613;28;20622;-71
2022/08/23 05:37:31;;;;;;;7.37;5.80;;;16.40;99.90;;;;;;5075919;28;20920;-71
2022/08/23 05:39:58;;;;;;;7.27;6.10;;;16.60;99.90;;;;;;5075650;28;20617;-71
2022/08/23 05:42:24;;;;;;;8.07;5.40;;;16.60;99.90;;;;;;5075653;28;20654;-71
2022/08/23 05:44:51;;;;;;;6.47;5.60;;;16.80;99.90;;;;;;5075820;28;20566;-71
2022/08/23 05:47:18;;;;;;;13.17;6.40;;;17.00;99.90;;;;;;5075575;28;20579;-71
2022/08/23 05:49:44;;;;;;;7.57;5.63;;;17.00;99.90;;;;;;5075246;28;21113;-71
2022/08/23 05:52:12;;;;;;;9.50;6.10;;;17.10;99.90;;;;;;5074773;28;20614;-71
2022/08/23 05:54:39;;;;;;;8.90;6.17;;;17.10;99.90;;;;;;5075672;28;20588;-71
2022/08/23 05:57:06;;;;;;;9.90;5.90;;;17.20;99.90;;;;;;5075083;28;20618;-71
2022/08/23 05:59:33;;;;;;;12.83;6.30;;;17.30;99.90;;;;;;5075465;28;20607;-71
2022/08/23 06:02:00;;;;;;;9.10;6.33;;;17.40;99.90;;;;;;5074941;28;20582;-71
2022/08/23 06:04:27;;;;;;;10.90;5.50;;;17.50;99.90;;;;;;5075144;28;20645;-71
2022/08/23 06:06:57;;;;;;;10.43;5.77;;;17.70;99.90;;;;;;5075324;28;20574;-71
2022/08/23 06:09:24;;;;;;;9.57;7.03;;;17.80;99.90;;;;;;5075357;28;20600;-71
2022/08/23 06:11:51;;;;;;;6.27;5.77;;;17.90;99.90;;;;;;5076014;28;20967;-71
2022/08/23 06:14:17;;;;;;;6.50;5.70;;;18.10;99.90;;;;;;5075488;28;20587;-71
2022/08/23 06:16:47;;;;;;;7.17;5.97;;;18.20;99.90;;;;;;5076036;28;20567;-71
2022/08/23 06:19:14;;;;;;;10.90;6.10;;;18.20;99.90;;;;;;5075540;28;20648;-71
2022/08/23 06:21:42;;;;;;;7.97;5.40;;;18.30;99.90;;;;;;5074593;28;20618;-71
2022/08/23 06:24:09;;;;;;;11.30;6.30;;;18.40;99.90;;;;;;5075136;28;20658;-71
2022/08/23 06:26:39;;;;;;;7.30;5.63;;;18.50;99.90;;;;;;5075256;28;20544;-71
2022/08/23 06:29:12;;;;;;;14.00;5.60;;;18.50;99.90;;;;;;5075379;28;20578;-71
2022/08/23 06:31:50;;;;;;;6.17;5.67;;;18.50;99.90;;;;;;5073084;28;21172;-72
2022/08/23 06:34:26;;;;;;;6.53;5.93;;;18.70;99.90;;;;;;5075531;28;20562;-71
2022/08/23 06:36:56;;;;;;;7.03;5.73;;;18.70;99.90;;;;;;5075208;28;20597;-71
2022/08/23 06:39:25;;;;;;;6.80;6.10;;;18.80;99.90;;;;;;5074532;28;21003;-71
2022/08/23 06:41:52;;;;;;;9.63;5.77;;;19.00;99.90;;;;;;5074790;28;20594;-71
2022/08/23 06:44:19;;;;;;;8.80;6.90;;;19.20;99.90;;;;;;5075107;28;20997;-72
2022/08/23 06:46:47;;;;;;;7.63;6.90;;;19.30;99.90;;;;;;5074390;28;20626;-71
2022/08/23 06:49:14;;;;;;;10.80;5.80;;;19.20;99.90;;;;;;5074709;28;20567;-71
2022/08/23 06:51:43;;;;;;;7.00;5.53;;;19.30;99.90;;;;;;5074594;28;20571;-69
2022/08/23 06:54:12;;;;;;;8.10;5.70;;;19.30;99.90;;;;;;5074546;28;20598;-71
2022/08/23 06:56:40;;;;;;;6.10;5.60;;;19.20;99.90;;;;;;5074573;28;20929;-71
2022/08/23 06:59:07;;;;;;;7.00;6.30;;;19.40;99.90;;;;;;5074635;28;20579;-71
2022/08/23 07:01:39;;;;;;;14.50;6.53;;;19.60;99.90;;;;;;5074318;28;21189;-71
2022/08/23 07:04:07;;;;;;;8.07;5.53;;;19.70;99.90;;;;;;5073285;28;20727;-71
2022/08/23 07:06:34;;;;;;;7.30;5.70;;;19.70;99.90;;;;;;5073982;28;20598;-71
2022/08/23 07:09:01;;;;;;;6.27;5.60;;;19.90;99.90;;;;;;5074326;28;20590;-71
2022/08/23 07:11:31;;;;;;;6.60;6.00;;;19.90;99.90;;;;;;5073634;28;20618;-71
2022/08/23 07:14:04;;;;;;;7.37;6.60;;;20.00;99.90;;;;;;5074188;28;20586;-69
2022/08/23 07:16:44;;;;;;;8.50;6.50;;;20.30;99.90;;;;;;5072641;28;20633;-69
2022/08/23 07:19:11;;;;;;;9.23;6.20;;;20.50;99.90;;;;;;5074110;28;20648;-69
2022/08/23 07:21:38;;;;;;;6.43;5.43;;;20.60;99.90;;;;;;5074307;28;20574;-69
2022/08/23 07:24:05;;;;;;;12.37;6.60;;;20.80;99.90;;;;;;5073542;28;21057;-70
2022/08/23 07:26:31;;;;;;;7.73;6.13;;;20.70;99.90;;;;;;5073936;28;20571;-71
2022/08/23 07:28:58;;;;;;;7.30;6.50;;;20.90;99.90;;;;;;5073585;28;20590;-71
2022/08/23 07:31:29;;;;;;;13.40;6.03;;;21.00;99.90;;;;;;5073748;28;20619;-71
2022/08/23 07:33:58;;;;;;;6.90;6.30;;;20.90;99.90;;;;;;5074053;28;20575;-71
2022/08/23 07:36:27;;;;;;;7.17;6.47;;;21.20;99.90;;;;;;5073835;28;20547;-70
2022/08/23 07:38:55;;;;;;;9.13;5.83;;;21.00;99.90;;;;;;5073399;28;20626;-70
2022/08/23 07:41:28;;;;;;;6.73;6.13;;;20.90;99.90;;;;;;5073906;28;20570;-70
2022/08/23 07:44:02;;;;;;;9.00;6.20;;;20.90;99.90;;;;;;5073337;28;21293;-71
2022/08/23 07:46:31;;;;;;;8.90;5.43;;;21.20;99.90;;;;;;5073638;28;21163;-71
2022/08/23 07:48:59;;;;;;;9.43;6.37;;;21.20;99.90;;;;;;5074083;28;20613;-70
2022/08/23 07:51:28;;;;;;;6.57;5.73;;;21.20;99.90;;;;;;5073688;28;20627;-70
2022/08/23 07:53:56;;;;;;;12.43;6.70;;;21.60;99.90;;;;;;5073476;28;20938;-70
2022/08/23 07:56:23;;;;;;;9.43;6.23;;;21.90;99.90;;;;;;5073917;28;20656;-71
2022/08/23 07:58:50;;;;;;;7.83;6.40;;;21.90;99.90;;;;;;5074109;28;21140;-70
2022/08/23 08:01:23;;;;;;;6.37;5.70;;;22.10;99.90;;;;;;5072742;28;20615;-71
2022/08/23 08:03:52;;;;;;;6.30;5.70;;;22.30;99.90;;;;;;5073643;28;21196;-71
2022/08/23 08:06:27;;;;;;;10.50;5.63;;;22.20;99.90;;;;;;5073964;28;20875;-71
2022/08/23 08:08:54;;;;;;;9.43;5.43;;;22.10;99.90;;;;;;5074061;28;20566;-71
2022/08/23 08:11:23;;;;;;;9.43;6.20;;;22.20;99.90;;;;;;5073725;28;20606;-71
2022/08/23 08:13:50;;;;;;;7.17;5.20;;;22.50;99.90;;;;;;5073888;28;20605;-71
2022/08/23 08:16:27;;;;;;;8.97;5.67;;;22.60;99.90;;;;;;5072995;28;21172;-71
2022/08/23 08:18:56;;;;;;;6.43;5.83;;;22.80;99.90;;;;;;5077143;28;21131;-71
2022/08/23 08:21:22;;;;;;;12.23;5.63;;;22.90;99.90;;;;;;5077372;28;20639;-71
2022/08/23 08:23:49;;;;;;;7.60;5.63;;;22.80;99.90;;;;;;5076780;28;20673;-71
2022/08/23 08:26:16;;;;;;;6.30;5.70;;;23.00;99.90;;;;;;5075576;28;20626;-73
2022/08/23 08:28:44;;;;;;;7.17;6.47;;;22.90;99.90;;;;;;5077280;28;20586;-71
2022/08/23 08:31:12;;;;;;;6.80;5.90;;;23.00;99.90;;;;;;5077413;28;20618;-71
2022/08/23 08:33:39;;;;;;;6.20;5.70;;;23.40;99.90;;;;;;5077224;28;20622;-71
2022/08/23 08:36:07;;;;;;;8.23;5.27;;;23.70;99.90;;;;;;5077326;28;20945;-71
2022/08/23 08:38:37;;;;;;;14.37;5.63;;;24.10;99.90;;;;;;5076532;28;20629;-71
2022/08/23 08:41:20;;;;;;;5.47;4.97;;;24.10;99.90;;;;;;5076710;28;21167;-71
2022/08/23 08:44:18;;;;;;;8.13;5.40;;;23.70;99.90;;;;;;5076875;28;21208;-71
2022/08/23 08:46:48;;;;;;;6.33;5.13;;;23.90;99.90;;;;;;5077183;28;20616;-71
2022/08/23 08:49:37;;;;;;;9.70;5.63;;;24.20;99.90;;;;;;5077353;28;20574;-71
2022/08/23 08:52:25;;;;;;;7.47;5.17;;;24.40;99.90;;;;;;5077090;28;20945;-71
2022/08/23 08:55:02;;;;;;;5.57;5.13;;;24.00;99.90;;;;;;5076938;28;21145;-71
2022/08/23 08:57:36;;;;;;;7.50;4.77;;;24.10;99.90;;;;;;5076692;28;20631;-71
2022/08/23 09:00:05;;;;;;;6.63;5.07;;;24.40;99.90;;;;;;5076536;28;20625;-71
2022/08/23 09:02:33;;;;;;;6.03;5.43;;;24.80;99.90;;;;;;5076532;28;20629;-71
2022/08/23 09:05:16;;;;;;;5.20;4.70;;;25.00;99.90;;;;;;5076184;28;21224;-71
2022/08/23 09:07:53;;;;;;;4.93;4.50;;;24.80;99.90;;;;;;5076384;28;20982;-71
2022/08/23 09:10:42;;;;;;;5.70;4.60;;;24.90;99.90;;;;;;5075008;28;20630;-71
2022/08/23 09:13:32;;;;;;;5.90;4.80;;;24.90;99.90;;;;;;5076445;28;20574;-71
2022/08/23 09:16:35;;;;;;;7.00;4.83;;;25.20;99.90;;;;;;5076934;28;20590;-71
2022/08/23 09:19:02;;;;;;;4.90;4.50;;;24.80;99.90;;;;;;5076376;28;20631;-71
2022/08/23 09:21:48;;;;;;;6.83;5.13;;;25.30;99.90;;;;;;5076077;28;21053;-71
2022/08/23 09:24:15;;;;;;;8.20;4.60;;;25.40;99.90;;;;;;5075845;28;20665;-71
2022/08/23 09:26:41;;;;;;;8.73;4.53;;;25.10;99.90;;;;;;5075835;28;20716;-71
2022/08/23 09:29:19;;;;;;;5.37;4.17;;;25.50;99.90;;;;;;5074137;28;20605;-71
2022/08/23 09:31:51;;;;;;;4.67;4.37;;;25.60;99.90;;;;;;5076141;28;20593;-71
2022/08/23 09:34:37;;;;;;;7.70;4.77;;;25.60;99.90;;;;;;5076184;28;20925;-71
2022/08/23 09:37:12;;;;;;;4.83;4.33;;;25.90;99.90;;;;;;5075692;28;21140;-71
2022/08/23 09:39:46;;;;;;;6.10;4.30;;;25.80;99.90;;;;;;5075579;28;20632;-71
2022/08/23 09:42:37;;;;;;;5.70;4.57;;;25.80;99.90;;;;;;5075480;28;20622;-71
2022/08/23 09:45:05;;;;;;;7.13;4.40;;;26.10;99.90;;;;;;5073756;28;21228;-71
2022/08/23 09:47:39;;;;;;;5.97;5.37;;;26.20;99.90;;;;;;5075654;28;20606;-71
2022/08/23 09:50:35;;;;;;;4.80;4.30;;;26.30;99.90;;;;;;5074706;28;20617;-71
2022/08/23 09:53:10;;;;;;;4.67;4.20;;;26.10;99.90;;;;;;5075268;28;20630;-71
2022/08/23 09:55:46;;;;;;;4.40;4.10;;;26.80;99.90;;;;;;5074535;28;21233;-70
2022/08/23 09:58:37;;;;;;;5.60;3.30;;;26.40;99.90;;;;;;5075555;28;20604;-70
2022/08/23 10:01:15;;;;;;;3.93;3.63;;;26.40;99.90;;;;;;5075877;28;21234;-70
2022/08/23 10:03:41;;;;;;;4.17;3.83;;;26.60;99.90;;;;;;5075743;28;20637;-70
2022/08/23 10:06:11;;;;;;;6.23;4.23;;;26.50;99.90;;;;;;5075567;28;20603;-70
2022/08/23 10:08:52;;;;;;;9.33;5.00;;;27.00;99.90;;;;;;5075406;28;21254;-70
2022/08/23 10:11:35;;;;;;;5.53;4.00;;;27.60;99.90;;;;;;5074419;28;20683;-70
2022/08/23 10:14:02;;;;;;;5.53;3.93;;;27.20;99.90;;;;;;5075042;28;20614;-70
2022/08/23 10:17:15;;;;;;;7.07;4.10;;;27.40;99.90;;;;;;5075057;28;20894;-70
2022/08/23 10:20:00;;;;;;;4.33;3.97;;;27.50;99.90;;;;;;5046491;28;20625;-70
2022/08/23 10:22:30;;;;;;;3.80;3.40;;;27.40;99.90;;;;;;5073714;28;21035;-70
2022/08/23 10:25:21;;;;;;;5.20;4.00;;;27.70;99.90;;;;;;5074930;28;20658;-70
2022/08/23 10:31:20;;;;;;;3.93;3.53;;;28.10;99.90;;;;;;5074306;28;20688;-70
2022/08/23 10:34:21;;;;;;;4.93;4.13;;;28.30;99.90;;;;;;5074886;28;20577;-70
2022/08/23 10:37:10;;;;;;;4.73;4.40;;;28.50;99.90;;;;;;5075028;28;20591;-70
2022/08/23 10:40:02;;;;;;;4.20;3.90;;;29.10;99.90;;;;;;5073808;28;20574;-71
2022/08/23 10:42:41;;;;;;;4.37;3.97;;;29.10;99.90;;;;;;5074738;28;20680;-71
2022/08/23 10:45:26;;;;;;;5.87;3.60;;;28.90;99.90;;;;;;5074843;28;20630;-71
2022/08/23 10:48:17;;;;;;;4.77;3.70;;;29.10;99.90;;;;;;5075552;28;20640;-71
2022/08/23 10:50:51;;;;;;;5.73;3.70;;;29.10;99.90;;;;;;5075471;28;20582;-71
2022/08/23 10:53:20;;;;;;;5.20;3.50;;;29.10;99.90;;;;;;5074790;28;20671;-71
2022/08/23 10:56:03;;;;;;;4.10;3.80;;;28.90;99.90;;;;;;5073483;28;20646;-71
2022/08/23 10:58:38;;;;;;;8.60;3.80;;;29.30;99.90;;;;;;5074866;28;21101;-71
2022/08/23 11:01:06;;;;;;;5.03;3.90;;;29.20;99.90;;;;;;5073442;28;20626;-71
2022/08/23 11:03:42;;;;;;;5.60;3.97;;;28.90;99.90;;;;;;5074089;28;21208;-71
2022/08/23 11:06:36;;;;;;;4.03;3.73;;;28.80;99.90;;;;;;5073600;28;20618;-71
2022/08/23 11:09:06;;;;;;;4.43;4.03;;;29.40;99.90;;;;;;5074196;28;20543;-72
2022/08/23 11:11:57;;;;;;;4.33;3.90;;;30.10;99.90;;;;;;5073932;28;20582;-73
2022/08/23 11:14:25;;;;;;;6.23;3.87;;;30.30;99.90;;;;;;5074047;28;20614;-73
2022/08/23 11:16:58;;;;;;;5.57;4.07;;;30.20;99.90;;;;;;5073997;28;20559;-73
2022/08/23 11:20:04;;;;;;;4.43;4.03;;;30.80;99.90;;;;;;5073526;28;20622;-71
2022/08/23 11:22:33;;;;;;;5.07;4.10;;;31.60;99.90;;;;;;5088473;28;20633;-73
2022/08/23 11:25:25;;;;;;;3.43;3.30;;;31.80;99.90;;;;;;5073695;28;20677;-74
2022/08/23 11:28:23;;;;;;;4.20;3.80;;;32.40;99.90;;;;;;5073388;28;20614;-73
2022/08/23 11:30:56;;;;;;;4.33;3.93;;;32.80;99.90;;;;;;5073093;28;20618;-72
2022/08/23 11:33:26;;;;;;;4.40;3.90;;;32.80;99.90;;;;;;5073442;28;20636;-72
2022/08/23 11:36:15;;;;;;;9.50;4.80;;;32.40;99.90;;;;;;5072089;28;20681;-73
2022/08/23 11:38:47;;;;;;;4.10;3.70;;;33.10;99.90;;;;;;5073091;28;20927;-72
2022/08/23 11:41:32;;;;;;;5.97;4.30;;;33.80;99.90;;;;;;5073729;28;20917;-73
2022/08/23 11:44:02;;;;;;;4.23;3.93;;;33.40;99.90;;;;;;5073334;28;20769;-72
2022/08/23 11:46:33;;;;;;;5.43;3.67;;;33.50;99.90;;;;;;5073902;28;20716;-73
2022/08/23 11:49:21;;;;;;;9.43;4.20;;;33.30;99.90;;;;;;5073695;28;21181;-72
2022/08/23 11:52:00;;;;;;;5.17;3.60;;;31.70;99.90;;;;;;5072929;28;20586;-72
2022/08/23 11:54:56;;;;;;;4.00;3.60;;;32.40;99.90;;;;;;5073172;28;20621;-72
2022/08/23 11:57:44;;;;;;;4.13;3.70;;;33.40;99.90;;;;;;5073627;28;20597;-72
2022/08/23 12:00:14;;;;;;;4.07;3.60;;;32.60;99.90;;;;;;5073675;28;20993;-72
2022/08/23 12:03:42;;;;;;;3.80;3.50;;;32.30;99.90;;;;;;5073690;28;20679;-72
2022/08/23 12:06:17;;;;;;;4.30;4.00;;;33.00;99.90;;;;;;5011685;28;20692;-72
2022/08/23 12:08:44;;;;;;;4.43;3.50;;;34.80;99.90;;;;;;5011728;28;20585;-72
2022/08/23 12:11:12;;;;;;;3.93;3.47;;;33.70;99.90;;;;;;5046195;28;20622;-73
2022/08/23 12:13:55;;;;;;;3.83;3.30;;;32.70;99.90;;;;;;5073710;28;20581;-72
2022/08/23 12:16:22;;;;;;;4.03;3.73;;;32.40;99.90;;;;;;5072912;28;20594;-72
2022/08/23 12:18:49;;;;;;;3.90;3.60;;;33.20;99.90;;;;;;5073163;28;20583;-73
2022/08/23 12:21:36;;;;;;;5.40;3.70;;;33.40;99.90;;;;;;5073250;28;20586;-73
2022/08/23 12:24:15;;;;;;;4.70;4.00;;;33.60;99.90;;;;;;5072469;28;21240;-73
2022/08/23 12:26:44;;;;;;;3.60;3.40;;;34.40;99.90;;;;;;5073821;28;20578;-72
2022/08/23 12:29:24;;;;;;;6.90;3.60;;;34.30;99.90;;;;;;5072833;28;20578;-73
2022/08/23 12:32:04;;;;;;;4.27;3.87;;;35.50;99.90;;;;;;5073533;28;20567;-72
2022/08/23 12:34:54;;;;;;;4.57;3.80;;;35.50;99.90;;;;;;5073324;28;20736;-72
2022/08/23 12:37:32;;;;;;;4.10;3.70;;;34.20;99.90;;;;;;5073901;28;20571;-72
2022/08/23 12:40:01;;;;;;;3.80;3.60;;;33.60;99.90;;;;;;5073383;28;20630;-71
2022/08/23 12:42:35;;;;;;;3.47;3.17;;;33.70;99.90;;;;;;5073434;28;20570;-71
2022/08/23 12:45:24;;;;;;;3.80;3.50;;;34.60;99.90;;;;;;5072524;28;20650;-72
2022/08/23 12:48:01;;;;;;;6.20;3.40;;;34.20;99.90;;;;;;5071687;28;20948;-71
2022/08/23 12:50:34;;;;;;;5.00;4.00;;;35.40;99.90;;;;;;5072456;28;20955;-71
2022/08/23 12:53:08;;;;;;;3.70;3.40;;;36.30;99.90;;;;;;5072526;28;20574;-71
2022/08/23 12:55:39;;;;;;;3.80;3.60;;;35.70;99.90;;;;;;5072449;28;21128;-71
2022/08/23 12:58:07;;;;;;;4.20;3.90;;;34.20;99.90;;;;;;5072713;28;20610;-71
2022/08/23 13:00:42;;;;;;;4.10;3.67;;;34.70;99.90;;;;;;5072100;28;21184;-71
2022/08/23 13:03:27;;;;;;;3.53;3.33;;;36.40;99.90;;;;;;5073841;28;20612;-71
2022/08/23 13:06:04;;;;;;;3.43;3.23;;;36.70;99.90;;;;;;5076320;28;20609;-71
2022/08/23 13:08:37;;;;;;;3.90;3.60;;;37.90;99.90;;;;;;5075542;28;20610;-71
2022/08/23 13:11:05;;;;;;;3.27;3.00;;;37.50;99.90;;;;;;5075899;28;20558;-71
2022/08/23 13:13:32;;;;;;;9.60;3.53;;;36.40;99.90;;;;;;5074856;28;20609;-71
2022/08/23 13:16:02;;;;;;;6.03;3.20;;;36.40;99.90;;;;;;5076087;28;20617;-71
2022/08/23 13:18:37;;;;;;;3.53;3.20;;;35.60;99.90;;;;;;5076026;28;20565;-70
2022/08/23 13:21:21;;;;;;;3.20;3.10;;;35.40;99.90;;;;;;5076252;28;20658;-70
2022/08/23 13:23:57;;;;;;;3.63;3.33;;;37.10;99.90;;;;;;5075731;28;21205;-71
2022/08/23 13:26:49;;;;;;;3.90;3.60;;;36.30;99.90;;;;;;5075938;28;20568;-71